sensor_id;sensor_type;location;lat;lon;timestamp;temperature;humidity
25550;DHT22;13444;50.562;7.262;2023-10-31T00:00:16;13.00;99.90
25550;DHT22;13444;50.562;7.262;2023-10-31T00:02:41;13.00;99.90
25550;DHT22;13444;50.562;7.262;2023-10-31T00:05:07;13.00;99.90
25550;DHT22;13444;50.562;7.262;2023-10-31T00:07:33;12.90;99.90
25550;DHT22;13444;50.562;7.262;2023-10-31T00:09:58;12.90;99.90
25550;DHT22;13444;50.562;7.262;2023-10-31T00:12:24;12.80;99.90
25550;DHT22;13444;50.562;7.262;2023-10-31T00:14:53;12.80;99.90
25550;DHT22;13444;50.562;7.262;2023-10-31T00:17:19;12.80;99.90
25550;DHT22;13444;50.562;7.262;2023-10-31T00:19:44;12.70;99.90
25550;DHT22;13444;50.562;7.262;2023-10-31T00:22:10;12.60;99.90
25550;DHT22;13444;50.562;7.262;2023-10-31T00:24:35;12.60;99.90
25550;DHT22;13444;50.562;7.262;2023-10-31T00:27:01;12.60;99.90
25550;DHT22;13444;50.562;7.262;2023-10-31T00:29:26;12.60;99.90
25550;DHT22;13444;50.562;7.262;2023-10-31T00:31:52;12.60;99.90
25550;DHT22;13444;50.562;7.262;2023-10-31T00:34:17;12.60;99.90
25550;DHT22;13444;50.562;7.262;2023-10-31T00:36:43;12.60;99.90
25550;DHT22;13444;50.562;7.262;2023-10-31T00:39:08;12.50;99.90
25550;DHT22;13444;50.562;7.262;2023-10-31T00:41:34;12.50;99.90
25550;DHT22;13444;50.562;7.262;2023-10-31T00:43:59;12.50;99.90
25550;DHT22;13444;50.562;7.262;2023-10-31T00:46:25;12.50;99.90
25550;DHT22;13444;50.562;7.262;2023-10-31T00:48:50;12.50;99.90
25550;DHT22;13444;50.562;7.262;2023-10-31T00:51:16;12.40;99.90
25550;DHT22;13444;50.562;7.262;2023-10-31T00:53:42;12.40;99.90
25550;DHT22;13444;50.562;7.262;2023-10-31T00:56:07;12.40;99.90
25550;DHT22;13444;50.562;7.262;2023-10-31T00:58:33;12.30;99.90
25550;DHT22;13444;50.562;7.262;2023-10-31T01:00:58;12.30;99.90
25550;DHT22;13444;50.562;7.262;2023-10-31T01:03:24;12.30;99.90
25550;DHT22;13444;50.562;7.262;2023-10-31T01:05:50;12.30;99.90
25550;DHT22;13444;50.562;7.262;2023-10-31T01:08:15;12.30;99.90
25550;DHT22;13444;50.562;7.262;2023-10-31T01:10:41;12.30;99.90
25550;DHT22;13444;50.562;7.262;2023-10-31T01:13:06;12.30;99.90
25550;DHT22;13444;50.562;7.262;2023-10-31T01:15:32;12.30;99.90
25550;DHT22;13444;50.562;7.262;2023-10-31T01:17:57;12.30;99.90
25550;DHT22;13444;50.562;7.262;2023-10-31T01:20:23;12.40;99.90
25550;DHT22;13444;50.562;7.262;2023-10-31T01:22:49;12.40;99.90
25550;DHT22;13444;50.562;7.262;2023-10-31T01:25:14;12.40;99.90
25550;DHT22;13444;50.562;7.262;2023-10-31T01:27:40;12.40;99.90
25550;DHT22;13444;50.562;7.262;2023-10-31T01:30:07;12.40;99.90
25550;DHT22;13444;50.562;7.262;2023-10-31T01:32:33;12.40;99.90
25550;DHT22;13444;50.562;7.262;2023-10-31T01:34:58;12.40;99.90
25550;DHT22;13444;50.562;7.262;2023-10-31T01:37:24;12.40;99.90
25550;DHT22;13444;50.562;7.262;2023-10-31T01:39:49;12.40;99.90
25550;DHT22;13444;50.562;7.262;2023-10-31T01:42:15;12.50;99.90
25550;DHT22;13444;50.562;7.262;2023-10-31T01:44:41;12.40;99.90
25550;DHT22;13444;50.562;7.262;2023-10-31T01:47:07;12.40;99.90
25550;DHT22;13444;50.562;7.262;2023-10-31T01:49:32;12.40;99.90
25550;DHT22;13444;50.562;7.262;2023-10-31T01:52:00;12.40;99.90
25550;DHT22;13444;50.562;7.262;2023-10-31T01:54:26;12.40;99.90
25550;DHT22;13444;50.562;7.262;2023-10-31T01:56:53;12.40;99.90
25550;DHT22;13444;50.562;7.262;2023-10-31T01:59:21;12.40;99.90
25550;DHT22;13444;50.562;7.262;2023-10-31T02:01:48;12.30;99.90
25550;DHT22;13444;50.562;7.262;2023-10-31T02:04:13;12.30;99.90
25550;DHT22;13444;50.562;7.262;2023-10-31T02:06:39;12.30;99.90
25550;DHT22;13444;50.562;7.262;2023-10-31T02:09:05;12.20;99.90
25550;DHT22;13444;50.562;7.262;2023-10-31T02:11:31;12.20;99.90
25550;DHT22;13444;50.562;7.262;2023-10-31T02:13:57;12.20;99.90
25550;DHT22;13444;50.562;7.262;2023-10-31T02:16:23;12.00;99.90
25550;DHT22;13444;50.562;7.262;2023-10-31T02:18:48;12.00;99.90
25550;DHT22;13444;50.562;7.262;2023-10-31T02:21:14;11.90;99.90
25550;DHT22;13444;50.562;7.262;2023-10-31T02:23:40;11.90;99.90
25550;DHT22;13444;50.562;7.262;2023-10-31T02:26:06;11.80;99.90
25550;DHT22;13444;50.562;7.262;2023-10-31T02:28:31;11.70;99.90
25550;DHT22;13444;50.562;7.262;2023-10-31T02:30:57;11.70;99.90
25550;DHT22;13444;50.562;7.262;2023-10-31T02:33:22;11.60;99.90
25550;DHT22;13444;50.562;7.262;2023-10-31T02:35:48;11.60;99.90
25550;DHT22;13444;50.562;7.262;2023-10-31T02:38:13;11.60;99.90
25550;DHT22;13444;50.562;7.262;2023-10-31T02:40:39;11.60;99.90
25550;DHT22;13444;50.562;7.262;2023-10-31T02:43:04;11.50;99.90
25550;DHT22;13444;50.562;7.262;2023-10-31T02:45:31;11.40;99.90
25550;DHT22;13444;50.562;7.262;2023-10-31T02:47:56;11.30;99.90
25550;DHT22;13444;50.562;7.262;2023-10-31T02:50:22;11.30;99.90
25550;DHT22;13444;50.562;7.262;2023-10-31T02:52:47;11.20;99.90
25550;DHT22;13444;50.562;7.262;2023-10-31T02:55:13;11.20;99.90
25550;DHT22;13444;50.562;7.262;2023-10-31T02:57:39;11.20;99.90
25550;DHT22;13444;50.562;7.262;2023-10-31T03:00:05;11.20;99.90
25550;DHT22;13444;50.562;7.262;2023-10-31T03:02:30;11.20;99.90
25550;DHT22;13444;50.562;7.262;2023-10-31T03:04:56;11.20;99.90
25550;DHT22;13444;50.562;7.262;2023-10-31T03:07:21;11.20;99.90
25550;DHT22;13444;50.562;7.262;2023-10-31T03:09:47;11.10;99.90
25550;DHT22;13444;50.562;7.262;2023-10-31T03:12:12;11.00;99.90
25550;DHT22;13444;50.562;7.262;2023-10-31T03:14:38;11.00;99.90
25550;DHT22;13444;50.562;7.262;2023-10-31T03:17:03;11.00;99.90
25550;DHT22;13444;50.562;7.262;2023-10-31T03:19:29;10.90;99.90
25550;DHT22;13444;50.562;7.262;2023-10-31T03:21:54;10.80;99.90
25550;DHT22;13444;50.562;7.262;2023-10-31T03:24:20;10.70;99.90
25550;DHT22;13444;50.562;7.262;2023-10-31T03:26:45;10.70;99.90
25550;DHT22;13444;50.562;7.262;2023-10-31T03:29:11;10.60;99.90
25550;DHT22;13444;50.562;7.262;2023-10-31T03:31:36;10.60;99.90
25550;DHT22;13444;50.562;7.262;2023-10-31T03:34:02;10.60;99.90
25550;DHT22;13444;50.562;7.262;2023-10-31T03:36:27;10.60;99.90
25550;DHT22;13444;50.562;7.262;2023-10-31T03:38:53;10.70;99.90
25550;DHT22;13444;50.562;7.262;2023-10-31T03:41:18;10.70;99.90
25550;DHT22;13444;50.562;7.262;2023-10-31T03:43:44;10.70;99.90
25550;DHT22;13444;50.562;7.262;2023-10-31T03:46:11;10.70;99.90
25550;DHT22;13444;50.562;7.262;2023-10-31T03:48:36;10.70;99.90
25550;DHT22;13444;50.562;7.262;2023-10-31T03:51:02;10.60;99.90
25550;DHT22;13444;50.562;7.262;2023-10-31T03:53:28;10.60;99.90
25550;DHT22;13444;50.562;7.262;2023-10-31T03:55:53;10.60;99.90
25550;DHT22;13444;50.562;7.262;2023-10-31T03:58:19;10.70;99.90
25550;DHT22;13444;50.562;7.262;2023-10-31T04:00:44;10.70;99.90
25550;DHT22;13444;50.562;7.262;2023-10-31T04:03:10;10.70;99.90
25550;DHT22;13444;50.562;7.262;2023-10-31T04:05:35;10.80;99.90
25550;DHT22;13444;50.562;7.262;2023-10-31T04:08:01;10.90;99.90
25550;DHT22;13444;50.562;7.262;2023-10-31T04:10:27;10.80;99.90
25550;DHT22;13444;50.562;7.262;2023-10-31T04:12:52;10.90;99.90
25550;DHT22;13444;50.562;7.262;2023-10-31T04:15:18;10.90;99.90
25550;DHT22;13444;50.562;7.262;2023-10-31T04:17:43;10.80;99.90
25550;DHT22;13444;50.562;7.262;2023-10-31T04:20:09;10.80;99.90
25550;DHT22;13444;50.562;7.262;2023-10-31T04:22:35;10.80;99.90
25550;DHT22;13444;50.562;7.262;2023-10-31T04:25:01;10.90;99.90
25550;DHT22;13444;50.562;7.262;2023-10-31T04:27:26;11.00;99.90
25550;DHT22;13444;50.562;7.262;2023-10-31T04:29:52;11.00;99.90
25550;DHT22;13444;50.562;7.262;2023-10-31T04:32:17;11.00;99.90
25550;DHT22;13444;50.562;7.262;2023-10-31T04:34:43;11.00;99.90
25550;DHT22;13444;50.562;7.262;2023-10-31T04:37:08;11.00;99.90
25550;DHT22;13444;50.562;7.262;2023-10-31T04:39:34;11.00;99.90
25550;DHT22;13444;50.562;7.262;2023-10-31T04:42:00;11.00;99.90
25550;DHT22;13444;50.562;7.262;2023-10-31T04:44:25;11.00;99.90
25550;DHT22;13444;50.562;7.262;2023-10-31T04:46:51;11.00;99.90
25550;DHT22;13444;50.562;7.262;2023-10-31T04:49:17;11.00;99.90
25550;DHT22;13444;50.562;7.262;2023-10-31T04:51:42;11.10;99.90
25550;DHT22;13444;50.562;7.262;2023-10-31T04:54:08;11.10;99.90
25550;DHT22;13444;50.562;7.262;2023-10-31T04:56:34;11.10;99.90
25550;DHT22;13444;50.562;7.262;2023-10-31T04:59:00;11.20;99.90
25550;DHT22;13444;50.562;7.262;2023-10-31T05:01:25;11.20;99.90
25550;DHT22;13444;50.562;7.262;2023-10-31T05:03:51;11.20;99.90
25550;DHT22;13444;50.562;7.262;2023-10-31T05:06:21;11.20;99.90
25550;DHT22;13444;50.562;7.262;2023-10-31T05:08:47;11.20;99.90
25550;DHT22;13444;50.562;7.262;2023-10-31T05:11:12;11.20;99.90
25550;DHT22;13444;50.562;7.262;2023-10-31T05:13:38;11.20;99.90
25550;DHT22;13444;50.562;7.262;2023-10-31T05:16:05;11.20;99.90
25550;DHT22;13444;50.562;7.262;2023-10-31T05:18:30;11.20;99.90
25550;DHT22;13444;50.562;7.262;2023-10-31T05:20:56;11.10;99.90
25550;DHT22;13444;50.562;7.262;2023-10-31T05:23:21;11.10;99.90
25550;DHT22;13444;50.562;7.262;2023-10-31T05:25:47;11.00;99.90
25550;DHT22;13444;50.562;7.262;2023-10-31T05:28:13;11.00;99.90
25550;DHT22;13444;50.562;7.262;2023-10-31T05:30:38;11.10;99.90
25550;DHT22;13444;50.562;7.262;2023-10-31T05:33:04;11.10;99.90
25550;DHT22;13444;50.562;7.262;2023-10-31T05:35:29;11.10;99.90
25550;DHT22;13444;50.562;7.262;2023-10-31T05:37:55;11.10;99.90
25550;DHT22;13444;50.562;7.262;2023-10-31T05:40:20;11.10;99.90
25550;DHT22;13444;50.562;7.262;2023-10-31T05:42:49;11.10;99.90
25550;DHT22;13444;50.562;7.262;2023-10-31T05:45:15;11.10;99.90
25550;DHT22;13444;50.562;7.262;2023-10-31T05:47:41;11.10;99.90
25550;DHT22;13444;50.562;7.262;2023-10-31T05:50:07;11.10;99.90
25550;DHT22;13444;50.562;7.262;2023-10-31T05:52:32;11.10;99.90
25550;DHT22;13444;50.562;7.262;2023-10-31T05:54:58;11.10;99.90
25550;DHT22;13444;50.562;7.262;2023-10-31T05:57:24;11.10;99.90
25550;DHT22;13444;50.562;7.262;2023-10-31T05:59:49;11.10;99.90
25550;DHT22;13444;50.562;7.262;2023-10-31T06:02:16;11.10;99.90
25550;DHT22;13444;50.562;7.262;2023-10-31T06:04:41;11.00;99.90
25550;DHT22;13444;50.562;7.262;2023-10-31T06:07:07;11.00;99.90
25550;DHT22;13444;50.562;7.262;2023-10-31T06:09:33;11.00;99.90
25550;DHT22;13444;50.562;7.262;2023-10-31T06:12:02;10.90;99.90
25550;DHT22;13444;50.562;7.262;2023-10-31T06:14:27;11.00;99.90
25550;DHT22;13444;50.562;7.262;2023-10-31T06:16:53;11.00;99.90
25550;DHT22;13444;50.562;7.262;2023-10-31T06:19:20;11.00;99.90
25550;DHT22;13444;50.562;7.262;2023-10-31T06:21:45;11.00;99.90
25550;DHT22;13444;50.562;7.262;2023-10-31T06:24:11;11.00;99.90
25550;DHT22;13444;50.562;7.262;2023-10-31T06:26:36;11.00;99.90
25550;DHT22;13444;50.562;7.262;2023-10-31T06:29:02;11.00;99.90
25550;DHT22;13444;50.562;7.262;2023-10-31T06:31:28;11.10;99.90
25550;DHT22;13444;50.562;7.262;2023-10-31T06:33:54;11.10;99.90
25550;DHT22;13444;50.562;7.262;2023-10-31T06:36:20;11.10;99.90
25550;DHT22;13444;50.562;7.262;2023-10-31T06:38:45;11.10;99.90
25550;DHT22;13444;50.562;7.262;2023-10-31T06:41:11;11.10;99.90
25550;DHT22;13444;50.562;7.262;2023-10-31T06:43:37;11.10;99.90
25550;DHT22;13444;50.562;7.262;2023-10-31T06:46:02;11.10;99.90
25550;DHT22;13444;50.562;7.262;2023-10-31T06:48:30;11.10;99.90
25550;DHT22;13444;50.562;7.262;2023-10-31T06:50:56;11.10;99.90
25550;DHT22;13444;50.562;7.262;2023-10-31T06:53:21;11.10;99.90
25550;DHT22;13444;50.562;7.262;2023-10-31T06:55:47;11.20;99.90
25550;DHT22;13444;50.562;7.262;2023-10-31T06:58:12;11.20;99.90
25550;DHT22;13444;50.562;7.262;2023-10-31T07:00:38;11.20;99.90
25550;DHT22;13444;50.562;7.262;2023-10-31T07:03:04;11.20;99.90
25550;DHT22;13444;50.562;7.262;2023-10-31T07:05:34;11.20;99.90
25550;DHT22;13444;50.562;7.262;2023-10-31T07:08:00;11.20;99.90
25550;DHT22;13444;50.562;7.262;2023-10-31T07:10:25;11.20;99.90
25550;DHT22;13444;50.562;7.262;2023-10-31T07:12:51;11.20;99.90
25550;DHT22;13444;50.562;7.262;2023-10-31T07:15:16;11.30;99.90
25550;DHT22;13444;50.562;7.262;2023-10-31T07:17:42;11.30;99.90
25550;DHT22;13444;50.562;7.262;2023-10-31T07:20:07;11.30;99.90
25550;DHT22;13444;50.562;7.262;2023-10-31T07:22:33;11.30;99.90
25550;DHT22;13444;50.562;7.262;2023-10-31T07:24:59;11.30;99.90
25550;DHT22;13444;50.562;7.262;2023-10-31T07:27:28;11.30;99.90
25550;DHT22;13444;50.562;7.262;2023-10-31T07:29:53;11.30;99.90
25550;DHT22;13444;50.562;7.262;2023-10-31T07:32:19;11.30;99.90
25550;DHT22;13444;50.562;7.262;2023-10-31T07:34:44;11.30;99.90
25550;DHT22;13444;50.562;7.262;2023-10-31T07:37:10;11.40;99.90
25550;DHT22;13444;50.562;7.262;2023-10-31T07:39:35;11.30;99.90
25550;DHT22;13444;50.562;7.262;2023-10-31T07:42:01;11.40;99.90
25550;DHT22;13444;50.562;7.262;2023-10-31T07:44:26;11.30;99.90
25550;DHT22;13444;50.562;7.262;2023-10-31T07:46:52;11.40;99.90
25550;DHT22;13444;50.562;7.262;2023-10-31T07:49:17;11.40;99.90
25550;DHT22;13444;50.562;7.262;2023-10-31T07:51:43;11.40;99.90
25550;DHT22;13444;50.562;7.262;2023-10-31T07:54:08;11.40;99.90
25550;DHT22;13444;50.562;7.262;2023-10-31T07:56:35;11.40;99.90
25550;DHT22;13444;50.562;7.262;2023-10-31T07:59:01;11.40;99.90
25550;DHT22;13444;50.562;7.262;2023-10-31T08:01:27;11.50;99.90
25550;DHT22;13444;50.562;7.262;2023-10-31T08:03:53;11.50;99.90
25550;DHT22;13444;50.562;7.262;2023-10-31T08:06:19;11.50;99.90
25550;DHT22;13444;50.562;7.262;2023-10-31T08:08:45;11.50;99.90
25550;DHT22;13444;50.562;7.262;2023-10-31T08:11:11;11.50;99.90
25550;DHT22;13444;50.562;7.262;2023-10-31T08:13:37;11.50;99.90
25550;DHT22;13444;50.562;7.262;2023-10-31T08:16:04;11.50;99.90
25550;DHT22;13444;50.562;7.262;2023-10-31T08:18:31;11.60;99.90
25550;DHT22;13444;50.562;7.262;2023-10-31T08:20:56;11.60;99.90
25550;DHT22;13444;50.562;7.262;2023-10-31T08:23:22;11.60;99.90
25550;DHT22;13444;50.562;7.262;2023-10-31T08:25:47;11.60;99.90
25550;DHT22;13444;50.562;7.262;2023-10-31T08:28:13;11.60;99.90
25550;DHT22;13444;50.562;7.262;2023-10-31T08:30:39;11.60;99.90
25550;DHT22;13444;50.562;7.262;2023-10-31T08:33:04;11.60;99.90
25550;DHT22;13444;50.562;7.262;2023-10-31T08:35:30;11.70;99.90
25550;DHT22;13444;50.562;7.262;2023-10-31T08:37:56;11.70;99.90
25550;DHT22;13444;50.562;7.262;2023-10-31T08:40:22;11.70;99.90
25550;DHT22;13444;50.562;7.262;2023-10-31T08:42:47;11.80;99.90
25550;DHT22;13444;50.562;7.262;2023-10-31T08:45:13;11.80;99.90
25550;DHT22;13444;50.562;7.262;2023-10-31T08:47:38;11.80;99.90
25550;DHT22;13444;50.562;7.262;2023-10-31T08:50:04;11.90;99.90
25550;DHT22;13444;50.562;7.262;2023-10-31T08:52:30;12.00;99.90
25550;DHT22;13444;50.562;7.262;2023-10-31T08:54:56;12.00;99.90
25550;DHT22;13444;50.562;7.262;2023-10-31T08:57:22;12.00;99.90
25550;DHT22;13444;50.562;7.262;2023-10-31T08:59:47;12.10;99.90
25550;DHT22;13444;50.562;7.262;2023-10-31T09:02:13;12.20;99.90
25550;DHT22;13444;50.562;7.262;2023-10-31T09:04:38;12.30;99.90
25550;DHT22;13444;50.562;7.262;2023-10-31T09:07:04;12.30;99.90
25550;DHT22;13444;50.562;7.262;2023-10-31T09:09:29;12.40;99.90
25550;DHT22;13444;50.562;7.262;2023-10-31T09:11:55;12.40;99.90
25550;DHT22;13444;50.562;7.262;2023-10-31T09:14:20;12.60;99.90
25550;DHT22;13444;50.562;7.262;2023-10-31T09:16:46;12.70;99.90
25550;DHT22;13444;50.562;7.262;2023-10-31T09:19:11;12.80;99.90
25550;DHT22;13444;50.562;7.262;2023-10-31T09:21:37;13.00;99.90
25550;DHT22;13444;50.562;7.262;2023-10-31T09:24:03;13.20;99.90
25550;DHT22;13444;50.562;7.262;2023-10-31T09:26:28;13.30;99.90
25550;DHT22;13444;50.562;7.262;2023-10-31T09:28:55;13.50;99.90
25550;DHT22;13444;50.562;7.262;2023-10-31T09:31:20;13.60;99.90
25550;DHT22;13444;50.562;7.262;2023-10-31T09:33:46;13.90;99.90
25550;DHT22;13444;50.562;7.262;2023-10-31T09:36:12;14.40;99.90
25550;DHT22;13444;50.562;7.262;2023-10-31T09:38:39;14.80;99.90
25550;DHT22;13444;50.562;7.262;2023-10-31T09:41:05;15.20;99.90
25550;DHT22;13444;50.562;7.262;2023-10-31T09:43:31;15.50;99.90
25550;DHT22;13444;50.562;7.262;2023-10-31T09:45:57;15.80;99.90
25550;DHT22;13444;50.562;7.262;2023-10-31T09:48:23;16.00;99.90
25550;DHT22;13444;50.562;7.262;2023-10-31T09:50:49;16.20;99.90
25550;DHT22;13444;50.562;7.262;2023-10-31T09:53:15;16.50;99.90
25550;DHT22;13444;50.562;7.262;2023-10-31T09:55:45;16.80;99.90
25550;DHT22;13444;50.562;7.262;2023-10-31T09:58:11;16.80;99.90
25550;DHT22;13444;50.562;7.262;2023-10-31T10:00:36;17.00;99.90
25550;DHT22;13444;50.562;7.262;2023-10-31T10:03:03;17.00;99.90
25550;DHT22;13444;50.562;7.262;2023-10-31T10:05:31;16.50;99.90
25550;DHT22;13444;50.562;7.262;2023-10-31T10:07:57;16.40;99.90
25550;DHT22;13444;50.562;7.262;2023-10-31T10:10:24;16.20;99.90
25550;DHT22;13444;50.562;7.262;2023-10-31T10:12:51;16.10;99.90
25550;DHT22;13444;50.562;7.262;2023-10-31T10:15:17;16.30;99.90
25550;DHT22;13444;50.562;7.262;2023-10-31T10:17:49;16.60;99.90
25550;DHT22;13444;50.562;7.262;2023-10-31T10:20:15;17.00;99.90
25550;DHT22;13444;50.562;7.262;2023-10-31T10:22:41;17.20;99.90
25550;DHT22;13444;50.562;7.262;2023-10-31T10:25:11;17.30;99.90
25550;DHT22;13444;50.562;7.262;2023-10-31T10:27:39;17.40;99.90
25550;DHT22;13444;50.562;7.262;2023-10-31T10:30:08;17.50;99.90
25550;DHT22;13444;50.562;7.262;2023-10-31T10:32:35;17.50;99.90
25550;DHT22;13444;50.562;7.262;2023-10-31T10:35:00;17.70;99.90
25550;DHT22;13444;50.562;7.262;2023-10-31T10:37:27;17.80;99.90
25550;DHT22;13444;50.562;7.262;2023-10-31T10:39:53;17.70;99.90
25550;DHT22;13444;50.562;7.262;2023-10-31T10:42:31;17.70;99.90
25550;DHT22;13444;50.562;7.262;2023-10-31T10:45:02;17.70;99.90
25550;DHT22;13444;50.562;7.262;2023-10-31T10:47:28;17.80;99.90
25550;DHT22;13444;50.562;7.262;2023-10-31T10:49:59;17.80;99.90
25550;DHT22;13444;50.562;7.262;2023-10-31T10:52:44;17.90;99.90
25550;DHT22;13444;50.562;7.262;2023-10-31T10:55:18;18.00;99.90
25550;DHT22;13444;50.562;7.262;2023-10-31T10:57:56;18.10;99.90
25550;DHT22;13444;50.562;7.262;2023-10-31T11:00:22;18.00;99.90
25550;DHT22;13444;50.562;7.262;2023-10-31T11:02:51;17.80;99.90
25550;DHT22;13444;50.562;7.262;2023-10-31T11:05:18;17.70;99.90
25550;DHT22;13444;50.562;7.262;2023-10-31T11:07:44;17.40;99.90
25550;DHT22;13444;50.562;7.262;2023-10-31T11:10:11;17.10;99.90
25550;DHT22;13444;50.562;7.262;2023-10-31T11:12:38;17.00;99.90
25550;DHT22;13444;50.562;7.262;2023-10-31T11:15:07;16.80;99.90
25550;DHT22;13444;50.562;7.262;2023-10-31T11:17:37;16.90;99.90
25550;DHT22;13444;50.562;7.262;2023-10-31T11:20:04;17.10;99.90
25550;DHT22;13444;50.562;7.262;2023-10-31T11:22:44;17.20;99.90
25550;DHT22;13444;50.562;7.262;2023-10-31T11:25:13;17.20;99.90
25550;DHT22;13444;50.562;7.262;2023-10-31T11:27:39;17.20;99.90
25550;DHT22;13444;50.562;7.262;2023-10-31T11:30:08;17.20;99.90
25550;DHT22;13444;50.562;7.262;2023-10-31T11:32:54;17.20;99.90
25550;DHT22;13444;50.562;7.262;2023-10-31T11:35:21;17.20;99.90
25550;DHT22;13444;50.562;7.262;2023-10-31T11:38:04;17.40;99.90
25550;DHT22;13444;50.562;7.262;2023-10-31T11:40:32;17.70;99.90
25550;DHT22;13444;50.562;7.262;2023-10-31T11:42:58;17.80;99.90
25550;DHT22;13444;50.562;7.262;2023-10-31T11:45:36;17.90;99.90
25550;DHT22;13444;50.562;7.262;2023-10-31T11:48:03;18.00;99.90
25550;DHT22;13444;50.562;7.262;2023-10-31T11:50:30;18.00;99.90
25550;DHT22;13444;50.562;7.262;2023-10-31T11:53:03;17.80;99.90
25550;DHT22;13444;50.562;7.262;2023-10-31T11:55:34;17.80;99.90
25550;DHT22;13444;50.562;7.262;2023-10-31T11:58:20;17.70;99.90
25550;DHT22;13444;50.562;7.262;2023-10-31T12:00:51;17.60;99.90
25550;DHT22;13444;50.562;7.262;2023-10-31T12:03:18;17.60;99.90
25550;DHT22;13444;50.562;7.262;2023-10-31T12:05:59;17.70;99.90
25550;DHT22;13444;50.562;7.262;2023-10-31T12:08:30;17.80;99.90
25550;DHT22;13444;50.562;7.262;2023-10-31T12:11:16;17.70;99.90
25550;DHT22;13444;50.562;7.262;2023-10-31T12:13:58;17.70;99.90
25550;DHT22;13444;50.562;7.262;2023-10-31T12:16:30;17.50;99.90
25550;DHT22;13444;50.562;7.262;2023-10-31T12:19:04;17.40;99.90
25550;DHT22;13444;50.562;7.262;2023-10-31T12:21:43;17.40;99.90
25550;DHT22;13444;50.562;7.262;2023-10-31T12:24:11;17.40;99.90
25550;DHT22;13444;50.562;7.262;2023-10-31T12:26:37;17.40;99.90
25550;DHT22;13444;50.562;7.262;2023-10-31T12:29:08;17.30;99.90
25550;DHT22;13444;50.562;7.262;2023-10-31T12:31:34;17.20;99.90
25550;DHT22;13444;50.562;7.262;2023-10-31T12:34:05;17.00;99.90
25550;DHT22;13444;50.562;7.262;2023-10-31T12:36:31;16.90;99.90
25550;DHT22;13444;50.562;7.262;2023-10-31T12:38:56;16.80;99.90
25550;DHT22;13444;50.562;7.262;2023-10-31T12:41:22;16.80;99.90
25550;DHT22;13444;50.562;7.262;2023-10-31T12:43:48;16.80;99.90
25550;DHT22;13444;50.562;7.262;2023-10-31T12:48:51;16.60;99.90
25550;DHT22;13444;50.562;7.262;2023-10-31T12:51:17;16.60;99.90
25550;DHT22;13444;50.562;7.262;2023-10-31T12:53:48;16.60;99.90
25550;DHT22;13444;50.562;7.262;2023-10-31T12:56:37;16.60;99.90
25550;DHT22;13444;50.562;7.262;2023-10-31T12:59:07;16.70;99.90
25550;DHT22;13444;50.562;7.262;2023-10-31T13:01:36;16.80;99.90
25550;DHT22;13444;50.562;7.262;2023-10-31T13:04:05;16.90;99.90
25550;DHT22;13444;50.562;7.262;2023-10-31T13:06:31;17.00;99.90
25550;DHT22;13444;50.562;7.262;2023-10-31T13:08:58;17.00;99.90
25550;DHT22;13444;50.562;7.262;2023-10-31T13:11:23;17.00;99.90
25550;DHT22;13444;50.562;7.262;2023-10-31T13:13:54;16.90;99.90
25550;DHT22;13444;50.562;7.262;2023-10-31T13:16:20;16.90;99.90
25550;DHT22;13444;50.562;7.262;2023-10-31T13:18:46;16.80;99.90
25550;DHT22;13444;50.562;7.262;2023-10-31T13:21:12;16.70;99.90
25550;DHT22;13444;50.562;7.262;2023-10-31T13:23:40;16.60;99.90
25550;DHT22;13444;50.562;7.262;2023-10-31T13:26:09;16.50;99.90
25550;DHT22;13444;50.562;7.262;2023-10-31T13:28:34;16.50;99.90
25550;DHT22;13444;50.562;7.262;2023-10-31T13:31:00;16.40;99.90
25550;DHT22;13444;50.562;7.262;2023-10-31T13:33:26;16.50;99.90
25550;DHT22;13444;50.562;7.262;2023-10-31T13:35:51;16.50;99.90
25550;DHT22;13444;50.562;7.262;2023-10-31T13:38:17;16.50;99.90
25550;DHT22;13444;50.562;7.262;2023-10-31T13:40:43;16.40;99.90
25550;DHT22;13444;50.562;7.262;2023-10-31T13:43:09;16.40;99.90
25550;DHT22;13444;50.562;7.262;2023-10-31T13:45:34;16.30;99.90
25550;DHT22;13444;50.562;7.262;2023-10-31T13:48:00;16.30;99.90
25550;DHT22;13444;50.562;7.262;2023-10-31T13:50:25;16.40;99.90
25550;DHT22;13444;50.562;7.262;2023-10-31T13:52:51;16.40;99.90
25550;DHT22;13444;50.562;7.262;2023-10-31T13:55:18;16.30;99.90
25550;DHT22;13444;50.562;7.262;2023-10-31T13:57:44;16.30;99.90
25550;DHT22;13444;50.562;7.262;2023-10-31T14:00:10;16.20;99.90
25550;DHT22;13444;50.562;7.262;2023-10-31T14:02:35;16.20;99.90
25550;DHT22;13444;50.562;7.262;2023-10-31T14:05:01;16.10;99.90
25550;DHT22;13444;50.562;7.262;2023-10-31T14:07:27;16.10;99.90
25550;DHT22;13444;50.562;7.262;2023-10-31T14:09:53;16.00;99.90
25550;DHT22;13444;50.562;7.262;2023-10-31T14:12:18;16.00;99.90
25550;DHT22;13444;50.562;7.262;2023-10-31T14:14:44;15.80;99.90
25550;DHT22;13444;50.562;7.262;2023-10-31T14:17:14;15.80;99.90
25550;DHT22;13444;50.562;7.262;2023-10-31T14:19:39;15.70;99.90
25550;DHT22;13444;50.562;7.262;2023-10-31T14:22:05;15.70;99.90
25550;DHT22;13444;50.562;7.262;2023-10-31T14:24:31;15.70;99.90
25550;DHT22;13444;50.562;7.262;2023-10-31T14:26:57;15.60;99.90
25550;DHT22;13444;50.562;7.262;2023-10-31T14:29:24;15.50;99.90
25550;DHT22;13444;50.562;7.262;2023-10-31T14:31:50;15.50;99.90
25550;DHT22;13444;50.562;7.262;2023-10-31T14:34:15;15.50;99.90
25550;DHT22;13444;50.562;7.262;2023-10-31T14:36:41;15.40;99.90
25550;DHT22;13444;50.562;7.262;2023-10-31T14:39:07;15.50;99.90
25550;DHT22;13444;50.562;7.262;2023-10-31T14:41:33;15.50;99.90
25550;DHT22;13444;50.562;7.262;2023-10-31T14:44:00;15.40;99.90
25550;DHT22;13444;50.562;7.262;2023-10-31T14:46:27;15.40;99.90
25550;DHT22;13444;50.562;7.262;2023-10-31T14:48:53;15.40;99.90
25550;DHT22;13444;50.562;7.262;2023-10-31T14:51:18;15.40;99.90
25550;DHT22;13444;50.562;7.262;2023-10-31T14:53:44;15.40;99.90
25550;DHT22;13444;50.562;7.262;2023-10-31T14:56:09;15.30;99.90
25550;DHT22;13444;50.562;7.262;2023-10-31T14:58:35;15.30;99.90
25550;DHT22;13444;50.562;7.262;2023-10-31T15:01:01;15.30;99.90
25550;DHT22;13444;50.562;7.262;2023-10-31T15:03:26;15.30;99.90
25550;DHT22;13444;50.562;7.262;2023-10-31T15:05:52;15.40;99.90
25550;DHT22;13444;50.562;7.262;2023-10-31T15:08:17;15.40;99.90
25550;DHT22;13444;50.562;7.262;2023-10-31T15:10:43;15.40;99.90
25550;DHT22;13444;50.562;7.262;2023-10-31T15:13:09;15.40;99.90
25550;DHT22;13444;50.562;7.262;2023-10-31T15:15:35;15.40;99.90
25550;DHT22;13444;50.562;7.262;2023-10-31T15:18:01;15.50;99.90
25550;DHT22;13444;50.562;7.262;2023-10-31T15:20:27;15.40;99.90
25550;DHT22;13444;50.562;7.262;2023-10-31T15:22:52;15.40;99.90
25550;DHT22;13444;50.562;7.262;2023-10-31T15:25:18;15.40;99.90
25550;DHT22;13444;50.562;7.262;2023-10-31T15:27:44;15.30;99.90